Vue régionale

METAR et TAF

Jeudi 26 avril 2018 à 07h55

Visibilités horizontales observées à différents aéroports. Les observations (METAR) et prévisions aéronautiques (TAF) complètes sont disponibles en cliquant sur l’icône correspondante.

  • Luxemburg (ELLX)

    Taf: TAF ELLX 260500Z 2606/2712 26010G20KT 9999 SCT020 BECMG 2619/2623 VRB02KT BECMG 2704/2708 12007KT=

    Metar: METAR ELLX 260520Z 25011KT 9999 FEW015 BKN038 06/04 Q1018 NOSIG=

  • Spangdahlem (ETAD)

    Taf: TAF ETAD 260308Z 2603/2709 26009KT 9999 SCT050 QNH2998INS BECMG 2605/2606 27015G20KT 9999 SCT030 BKN040 610409 QNH3002INS BECMG 2607/2608 27015G20KT 8000 -SHRA SCT025 BKN030 610409 QNH3005INS BECMG 2613/2614 27012G18KT 9999 NSW SCT030 QNH3004INS BECMG 2617/2618 27009KT 9999 SCT050 QNH2995INS TX16/2614Z TN02/2604Z=

    Metar: METAR ETAD 260456Z AUTO 23010KT 9999 FEW035 BKN045 06/03 A3001 RMK AO2 SLP158 T00590029 $=

  • Metz/Nancy (LFJL)

    Taf: TAF LFJL 260500Z 2606/2706 26010KT 9999 SCT040 BECMG 2618/2621 VRB04KT=

    Metar: METAR LFJL 260530Z AUTO 24010KT 9999 FEW030 07/05 Q1019 NOSIG=

  • Saarbrücken/Intl (EDDR)

    Taf: TAF EDDR 260500Z 2606/2706 25007KT 9999 FEW035 BECMG 2607/2609 26013KT TEMPO 2608/2617 27015G25KT BECMG 2617/2619 25004KT BECMG 2704/2706 07005KT=

    Metar: METAR EDDR 260520Z 26010KT 9999 FEW010 SCT085 06/04 Q1018 NOSIG=

  • Hahn (EDFH)

    Taf: TAF EDFH 260500Z 2606/2706 27015G25KT 9999 SCT020 TEMPO 2606/2609 BKN014 TEMPO 2609/2616 27020G30KT SHRA BKN020TCU BECMG 2617/2619 25007KT BECMG 2702/2705 15007KT=

    Metar: METAR EDFH 260520Z 26013KT 9999 SCT025 06/02 Q1016=

  • Ramstein (ETAR)

    Taf: TAF ETAR 260201Z 2602/2708 26009KT 9999 SCT050 QNH3000INS BECMG 2607/2608 27015G20KT 9999 SCT035 BKN045 610455 QNH3005INS BECMG 2616/2617 27009KT 9999 SCT050 QNH2991INS TX17/2614Z TN05/2604Z=

    Metar: nil

  • Nancy/Ochey (LFSO)

    Taf: TAF AMD LFSO 260450Z 2604/2703 24010KT CAVOK TEMPO 2610/2618 24010G20KT=

    Metar: METAR LFSO 260530Z AUTO 24005KT 210V270 9999 BKN023 BKN060 OVC084 07/05 Q1020 NOSIG=

  • Liège Bierset (EBLG)

    Taf: TAF EBLG 260510Z 2606/2712 25011KT 9999 FEW025 BECMG 2620/2622 18005KT=

    Metar: METAR EBLG 260520Z 25014KT 9999 FEW018 SCT037 08/05 Q1016 NOSIG=

  • Saint-Dizier (LFSI)

    Taf: TAF LFSI 260200Z 2603/2703 36005KT CAVOK=

    Metar: METAR LFSI 260530Z AUTO 24006KT CAVOK 08/05 Q1020=

  • Maastricht/Zuid Limburg (EHBK)

    Taf: TAF EHBK 260447Z 2606/2712 25010KT 9999 SCT040 BECMG 2606/2608 26015G25KT BECMG 2616/2619 23007KT=

    Metar: METAR EHBK 260525Z AUTO 24011KT 200V310 9999 SCT017 BKN021 OVC026 08/06 Q1015 NOSIG=

  • Köln/Köln-Bonn (EDDK)

    Taf: TAF EDDK 260500Z 2606/2712 25010KT 9999 BKN030 TEMPO 2608/2614 26015G25KT PROB30 TEMPO 2614/2618 27015G25KT SHRA BKN030CB BECMG 2618/2621 20005KT BECMG 2621/2624 12005KT BECMG 2709/2712 14010KT=

    Metar: METAR EDDK 260520Z 25007KT 9999 -SHRA FEW014 SCT022TCU BKN050 08/05 Q1015 NOSIG=

  • Charleroi (EBCI)

    Taf: TAF EBCI 260510Z 2606/2712 25011KT 9999 FEW025 BECMG 2620/2622 18005KT=

    Metar: METAR EBCI 260520Z 24014KT 9999 FEW014 SCT020 07/05 Q1017 NOSIG=

  • Wiesbaden (ETOU)

    Taf: TAF ETOU 260305Z 2603/2709 26009KT 9999 SCT050 QNH2997INS BECMG 2607/2608 27015G20KT 9999 SCT040 BKN050 610505 QNH3002INS TEMPO 2609/2612 9000 -RA BKN040 BECMG 2616/2617 27009KT 9999 SCT050 QNH2989INS TX17/2614Z TN05/2604Z=

    Metar: METAR ETOU 260456Z AUTO 00000KT 9999 CLR 06/03 A3002 RMK AO2 SLP170 T00610031 $=

  • Karlsruhe/Baden-Baden (EDSB)

    Taf: TAF EDSB 260500Z 2606/2706 24004KT 9999 FEW030 SCT045 BECMG 2608/2610 25010KT BECMG 2617/2619 24003KT=

    Metar: METAR EDSB 260520Z 25009KT 210V280 CAVOK 11/05 Q1019=

  • Chalons/Vatry (LFOK)

    Taf: TAF LFOK 260500Z 2606/2706 25012KT 9999 SCT030 BECMG 2618/2620 VRB02KT=

    Metar: METAR LFOK 260530Z AUTO 22007KT CAVOK 05/04 Q1020 NOSIG=

  • Brüssel (EBBR)

    Taf: TAF EBBR 260510Z 2606/2712 25011KT 9999 FEW025 BECMG 2620/2622 18005KT=

    Metar: METAR EBBR 260520Z 25013KT 9999 SCT013 08/05 Q1016 NOSIG=

  • Düsseldorf (EDDL)

    Taf: TAF EDDL 260500Z 2606/2712 24013KT 9999 BKN030 PROB40 TEMPO 2606/2609 27015G25KT SHRA BKN015CB TEMPO 2609/2614 26015G25KT PROB30 TEMPO 2614/2618 26015G25KT SHRA BKN030CB BECMG 2618/2621 24006KT BECMG 2621/2624 14005KT BECMG 2709/2712 14010KT=

    Metar: METAR EDDL 260520Z 23013KT 9999 -SHRA FEW018 BKN022TCU 09/06 Q1014 TEMPO SHRA=

  • Luxeuil (LFSX)

    Taf: TAF LFSX 260400Z 2605/2703 28005KT CAVOK=

    Metar: METAR LFSX 260530Z AUTO 27003KT 9999 OVC045/// 09/08 Q1020 NOSIG=

  • Eindhoven (EHEH)

    Taf: TAF EHEH 252334Z 2600/2706 23012KT 9999 FEW022 SCT045 PROB30 TEMPO 2600/2606 SCT018CB BKN025 BECMG 2606/2609 26013G23KT SCT020 BECMG 2618/2621 19004KT=

    Metar: METAR EHEH 260525Z AUTO 24012KT 210V290 9999 FEW021 SCT025 BKN064 09/06 Q1014 BLU 26012KT 9999 FEW020 BKN045 TEMPO SCT018CB BKN025=

  • Niederrhein (EDLV)

    Taf: TAF EDLV 260500Z 2606/2706 25013KT 9999 BKN030 PROB40 TEMPO 2607/2617 27015G25KT SHRA BKN020CB PROB30 TEMPO 2607/2610 BKN012 BECMG 2618/2621 21005KT BECMG 2703/2706 15005KT=

    Metar: METAR EDLV 260520Z 25011KT 9999 -RA BKN025 08/07 Q1014=

  • Dortmund/Wickede (EDLW)

    Taf: TAF EDLW 260500Z 2606/2706 24013KT 9999 BKN030 PROB40 TEMPO 2606/2619 27015G25KT SHRA BKN020CB PROB30 TEMPO 2606/2609 3000 TSRA BKN012CB BECMG 2618/2621 23008KT BECMG 2700/2703 17007KT=

    Metar: METAR EDLW 260520Z 24012KT 9999 -DZ FEW032 BKN066 08/05 Q1013=

  • Stuttgart/Echterdingen (EDDS)

    Taf: TAF EDDS 260500Z 2606/2706 24004KT 9999 SCT040 BECMG 2607/2609 26011KT PROB30 TEMPO 2609/2616 26015G25KT BECMG 2617/2619 VRB03KT=

    Metar: METAR EDDS 260520Z 23004KT 160V290 9999 FEW028 BKN075 09/07 Q1018 NOSIG=

  • Basel-Mühlhausen (LFSB)

    Taf: TAF LFSB 260500Z 2606/2706 28010KT 9999 FEW025 BKN060 PROB30 TEMPO 2609/2612 -SHRA BECMG 2617/2620 VRB04KT=

    Metar: METAR LFSB 260530Z 24007KT 9999 FEW020 SCT085 10/07 Q1020 NOSIG=

  • Lille (LFQQ)

    Taf: TAF LFQQ 260500Z 2606/2712 24012KT 9999 SCT030 TEMPO 2610/2616 24018G28KT BECMG 2618/2621 VRB02KT BECMG 2709/2711 16010KT=

    Metar: METAR LFQQ 260530Z AUTO 24011KT CAVOK 08/05 Q1017 NOSIG=

  • Paris/Charles de Gaulle (LFPG)

    Taf: TAF LFPG 260500Z 2606/2712 26010KT 9999 FEW025 PROB30 TEMPO 2612/2615 FEW035TCU BECMG 2617/2619 32005KT BECMG 2709/2712 16010G20KT TX19/2712Z TN07/2704Z=

    Metar: METAR LFPG 260530Z 26007KT CAVOK 07/05 Q1020 NOSIG=

  • Paderborn/Lippstadt (EDLP)

    Taf: TAF EDLP 260500Z 2606/2706 25012KT 9999 BKN030 PROB40 TEMPO 2606/2619 27015G25KT SHRA BKN020CB PROB30 TEMPO 2606/2609 3000 TSRA BKN012CB BECMG 2618/2621 23006KT BECMG 2700/2703 17007KT=

    Metar: METAR EDLP 260520Z 24012KT 9999 -SHRA SCT022CB SCT036 07/05 Q1012=

  • Paris/Le Bourget (LFPB)

    Taf: TAF LFPB 260500Z 2606/2706 26010KT 9999 FEW025 PROB30 TEMPO 2612/2615 FEW035TCU BECMG 2617/2619 32005KT=

    Metar: METAR LFPB 260530Z AUTO 25007KT CAVOK 07/05 Q1020 NOSIG=

  • Rotterdam (EHRD)

    Taf: TAF EHRD 260433Z 2606/2712 26015KT 9999 FEW015 BECMG 2606/2608 26017G27KT BECMG 2615/2618 23013KT BECMG 2621/2624 21006KT PROB30 TEMPO 2703/2708 6000 BKN006=

    Metar: METAR EHRD 260525Z AUTO 26013KT 230V300 9999 BKN018 09/06 Q1013 NOSIG=

  • Zürich/Kloten (LSZH)

    Taf: TAF LSZH 260525Z 2606/2712 28010KT 9999 FEW025 BKN050 TX16/2614Z TN11/2606Z TN05/2704Z BECMG 2617/2619 VRB03KT BECMG 2622/2701 CAVOK BECMG 2705/2708 06006KT=

    Metar: METAR LSZH 260520Z 27009KT 9999 FEW025 SCT052 BKN058 11/06 Q1019 NOSIG=

  • Oostende/Intl (EBOS)

    Taf: TAF EBOS 260510Z 2606/2712 26016KT 9999 FEW020 BECMG 2618/2620 20011KT BECMG 2701/2703 14005KT=

    Metar: METAR EBOS 260520Z 26016KT 9999 SCT019 08/05 Q1015 TEMPO 26018G28KT=

  • Paris/Orly (LFPO)

    Taf: TAF LFPO 260500Z 2606/2712 25008KT 9999 FEW025 BECMG 2706/2709 15010KT=

    Metar: METAR LFPO 260530Z 25008KT 9999 FEW025 07/05 Q1020 NOSIG=

  • Beauvais (LFOB)

    Taf: TAF LFOB 260500Z 2606/2706 25010KT 9999 SCT030 BECMG 2614/2617 31010KT BECMG 2618/2620 VRB02KT=

    Metar: METAR LFOB 260530Z AUTO 24006KT CAVOK 07/05 Q1019 NOSIG=

  • Münster/Intl (EDDG)

    Taf: TAF EDDG 260500Z 2606/2706 25013KT 9999 BKN030 PROB40 TEMPO 2607/2618 27015G25KT SHRA BKN020CB PROB30 TEMPO 2607/2610 BKN012 BECMG 2618/2621 25007KT BECMG 2621/2624 18004KT=

    Metar: METAR EDDG 260520Z 23006KT 9999 SCT020 BKN040 07/05 Q1012 NOSIG=

  • Illesheim (ETIK)

    Taf: TAF ETIK 260504Z 2605/2711 26009KT 9999 SCT020 BKN030 QNH3000INS BECMG 2607/2608 27015G25KT 9999 BKN030 QNH3000INS BECMG 2611/2612 28015G25KT 9999 SCT050 QNH3004INS BECMG 2617/2618 27012KT 9999 FEW050 QNH3006INS BECMG 2623/2624 VRB06KT 8000 BR FEW090 QNH3009INS BECMG 2706/2707 12009KT 9999 NSW FEW130 QNH2999INS TX16/2615Z TN04/2703Z=

    Metar: METAR ETIK 260456Z AUTO 25004KT 9999 FEW025 FEW031 OVC085 09/05 A3003 RMK AO2 SLP171 T00890053 $=

  • Duebendorf (LSMD)

    Taf: TAF LSMD 260500Z NIL=

    Metar: METAR LSMD 260450Z 32015KT 9999 BKN044 OVC057 11/06 Q1019 RMK BLU=

  • Villacoublay (LFPV)

    Taf: TAF LFPV 260200Z 2603/2703 26010KT CAVOK=

    Metar: METAR LFPV 260530Z AUTO 26007KT CAVOK 06/04 Q1020 NOSIG=

  • Payerne (LSMP)

    Taf: TAF LSMP 260525Z 2606/2712 29007KT 9999 FEW050 SCT080=

    Metar: METAR LSMP 260450Z 27005KT 230V300 9999 BKN063 BKN079 12/03 Q1019 RMK BLU=

  • Amsterdam/Schipol (EHAM)

    Taf: TAF EHAM 260432Z 2606/2712 26015KT 9999 FEW015 BECMG 2606/2608 26017G27KT BECMG 2615/2618 23013KT BECMG 2621/2624 21006KT PROB30 TEMPO 2703/2708 6000 BKN006=

    Metar: METAR EHAM 260525Z 26015KT 9999 FEW015 09/06 Q1012 NOSIG=

  • Emmen (LSME)

    Taf: TAF LSME 260500Z NIL=

    Metar: METAR LSME 260450Z 08003KT 040V120 8000 -SHRA BKN035 BKN040 11/07 Q1019 RMK BLU=

  • Friedrichshafen (EDNY)

    Taf: TAF EDNY 260500Z 2606/2706 25007KT 9999 SCT030 BECMG 2616/2618 VRB03KT=

    Metar: METAR EDNY 260520Z VRB02KT 9999 -RA BKN040 OVC046 11/07 Q1019=

  • Alpnach (LSMA)

    Taf: TAF LSMA 260500Z NIL=

    Metar: METAR LSMA 260450Z AUTO 07015KT 9999NDV OVC047 12/07 Q1018 RMK=

  • Meiringen (LSMM)

    Taf: TAF LSMM 260500Z NIL=

    Metar: METAR LSMM 260450Z AUTO 28006KT 230V320 9999NDV OVC042 13/06 Q1018 RMK=

  • Nürnberg (EDDN)

    Taf: TAF EDDN 260500Z 2606/2706 27010KT 9999 FEW030 SCT045 BECMG 2606/2608 27015G25KT BECMG 2616/2618 28005KT BECMG 2620/2622 15004KT=

    Metar: METAR EDDN 260520Z 30007KT 9999 FEW030 BKN070 10/04 Q1016 BECMG 27015G25KT=

  • Rouen (LFOP)

    Taf: TAF LFOP 260500Z 2606/2706 25010KT 9999 BKN020 BECMG 2617/2619 VRB02KT=

    Metar: METAR LFOP 260530Z AUTO 25008KT 9999 FEW010 BKN019 BKN028 06/05 Q1019 NOSIG=

  • Evreux (LFOE)

    Taf: TAF AMD LFOE 260504Z 2605/2703 28010KT CAVOK TEMPO 2611/2617 30015G30KT 4000 -SHRA BKN030TCU BECMG 2618/2620 VRB02KT BECMG 2623/2701 12005KT=

    Metar: METAR LFOE 260530Z AUTO 24006KT CAVOK 06/04 Q1020 NOSIG=

  • Erfurt/Bindersleben (EDDE)

    Taf: TAF EDDE 260500Z 2606/2706 24008KT CAVOK BECMG 2607/2610 25015G25KT SCT020CB TEMPO 2609/2615 26025G35KT SHRA BKN020CB BECMG 2616/2618 22007KT BECMG 2619/2621 CAVOK=

    Metar: METAR EDDE 260520Z 24014KT 9999 FEW030 08/03 Q1013 NOSIG=